sensor_id;sensor_type;location;lat;lon;timestamp;P1;durP1;ratioP1;P2;durP2;ratioP2
22072;SDS011;11202;50.916;4.698;2023-01-05T02:07:32;38.72;;;5.03;;
22072;SDS011;11202;50.916;4.698;2023-01-05T02:10:03;29.70;;;4.35;;
22072;SDS011;11202;50.916;4.698;2023-01-05T02:15:45;29.73;;;4.75;;
22072;SDS011;11202;50.916;4.698;2023-01-05T02:18:58;31.25;;;5.07;;
22072;SDS011;11202;50.916;4.698;2023-01-05T02:38:36;28.98;;;5.10;;
22072;SDS011;11202;50.916;4.698;2023-01-05T02:44:06;29.60;;;4.35;;
22072;SDS011;11202;50.916;4.698;2023-01-05T02:46:32;34.22;;;5.15;;
22072;SDS011;11202;50.916;4.698;2023-01-05T02:48:58;34.70;;;5.78;;
22072;SDS011;11202;50.916;4.698;2023-01-05T02:51:30;30.10;;;5.65;;
22072;SDS011;11202;50.916;4.698;2023-01-05T02:54:02;39.88;;;5.50;;
22072;SDS011;11202;50.916;4.698;2023-01-05T02:56:54;37.42;;;5.60;;
22072;SDS011;11202;50.916;4.698;2023-01-05T02:59:27;41.20;;;5.75;;
22072;SDS011;11202;50.916;4.698;2023-01-05T03:02:03;35.85;;;4.60;;
22072;SDS011;11202;50.916;4.698;2023-01-05T03:04:36;37.88;;;5.85;;
22072;SDS011;11202;50.916;4.698;2023-01-05T03:07:12;37.40;;;5.40;;
22072;SDS011;11202;50.916;4.698;2023-01-05T03:12:09;37.95;;;5.38;;
22072;SDS011;11202;50.916;4.698;2023-01-05T03:15:23;33.85;;;4.97;;
22072;SDS011;11202;50.916;4.698;2023-01-05T03:17:55;39.65;;;5.15;;
22072;SDS011;11202;50.916;4.698;2023-01-05T03:20:27;30.20;;;4.10;;
22072;SDS011;11202;50.916;4.698;2023-01-05T03:22:58;28.08;;;5.18;;
22072;SDS011;11202;50.916;4.698;2023-01-05T03:25:44;32.13;;;4.85;;
22072;SDS011;11202;50.916;4.698;2023-01-05T03:28:38;38.63;;;5.57;;
22072;SDS011;11202;50.916;4.698;2023-01-05T03:31:34;34.63;;;5.25;;
22072;SDS011;11202;50.916;4.698;2023-01-05T03:37:35;32.10;;;5.82;;
22072;SDS011;11202;50.916;4.698;2023-01-05T03:40:16;41.53;;;5.40;;
22072;SDS011;11202;50.916;4.698;2023-01-05T03:42:48;44.92;;;6.65;;
22072;SDS011;11202;50.916;4.698;2023-01-05T03:45:16;38.75;;;4.82;;
22072;SDS011;11202;50.916;4.698;2023-01-05T03:47:44;30.73;;;5.00;;
22072;SDS011;11202;50.916;4.698;2023-01-05T03:50:10;35.28;;;5.25;;
22072;SDS011;11202;50.916;4.698;2023-01-05T03:52:36;31.23;;;4.68;;
22072;SDS011;11202;50.916;4.698;2023-01-05T03:55:02;31.42;;;5.55;;
22072;SDS011;11202;50.916;4.698;2023-01-05T03:57:27;32.30;;;5.22;;
22072;SDS011;11202;50.916;4.698;2023-01-05T03:59:53;25.58;;;5.15;;
22072;SDS011;11202;50.916;4.698;2023-01-05T04:02:19;27.45;;;4.72;;
22072;SDS011;11202;50.916;4.698;2023-01-05T04:04:45;33.00;;;4.93;;
22072;SDS011;11202;50.916;4.698;2023-01-05T04:07:10;34.05;;;5.22;;
22072;SDS011;11202;50.916;4.698;2023-01-05T04:09:36;24.00;;;4.55;;
22072;SDS011;11202;50.916;4.698;2023-01-05T04:12:04;32.75;;;5.55;;
22072;SDS011;11202;50.916;4.698;2023-01-05T04:14:30;35.08;;;6.18;;
22072;SDS011;11202;50.916;4.698;2023-01-05T04:16:58;39.85;;;5.30;;
22072;SDS011;11202;50.916;4.698;2023-01-05T04:19:24;36.88;;;5.38;;
22072;SDS011;11202;50.916;4.698;2023-01-05T04:21:49;39.42;;;5.53;;
22072;SDS011;11202;50.916;4.698;2023-01-05T04:24:15;29.35;;;4.22;;
22072;SDS011;11202;50.916;4.698;2023-01-05T04:26:41;39.28;;;5.60;;
22072;SDS011;11202;50.916;4.698;2023-01-05T04:29:09;33.83;;;5.57;;
22072;SDS011;11202;50.916;4.698;2023-01-05T04:31:35;35.05;;;5.40;;
22072;SDS011;11202;50.916;4.698;2023-01-05T04:34:04;29.40;;;4.63;;
22072;SDS011;11202;50.916;4.698;2023-01-05T04:36:29;29.40;;;4.93;;
22072;SDS011;11202;50.916;4.698;2023-01-05T04:38:55;30.77;;;4.82;;
22072;SDS011;11202;50.916;4.698;2023-01-05T04:41:21;36.60;;;5.25;;
22072;SDS011;11202;50.916;4.698;2023-01-05T04:43:46;41.80;;;6.32;;
22072;SDS011;11202;50.916;4.698;2023-01-05T04:46:14;41.30;;;6.15;;
22072;SDS011;11202;50.916;4.698;2023-01-05T04:48:40;28.83;;;5.65;;
22072;SDS011;11202;50.916;4.698;2023-01-05T04:51:05;15.07;;;3.92;;
22072;SDS011;11202;50.916;4.698;2023-01-05T04:53:31;29.63;;;4.78;;
22072;SDS011;11202;50.916;4.698;2023-01-05T04:55:57;28.67;;;5.05;;
22072;SDS011;11202;50.916;4.698;2023-01-05T04:58:24;31.05;;;4.47;;
22072;SDS011;11202;50.916;4.698;2023-01-05T05:00:50;34.33;;;4.63;;
22072;SDS011;11202;50.916;4.698;2023-01-05T05:03:15;32.20;;;5.38;;
22072;SDS011;11202;50.916;4.698;2023-01-05T05:05:41;37.75;;;5.13;;
22072;SDS011;11202;50.916;4.698;2023-01-05T05:08:07;47.72;;;6.15;;
22072;SDS011;11202;50.916;4.698;2023-01-05T05:10:33;37.00;;;5.25;;
22072;SDS011;11202;50.916;4.698;2023-01-05T05:12:58;37.58;;;6.22;;
22072;SDS011;11202;50.916;4.698;2023-01-05T05:15:24;36.30;;;5.75;;
22072;SDS011;11202;50.916;4.698;2023-01-05T05:17:50;35.33;;;5.80;;
22072;SDS011;11202;50.916;4.698;2023-01-05T05:20:15;36.63;;;5.30;;
22072;SDS011;11202;50.916;4.698;2023-01-05T05:22:41;30.15;;;5.15;;
22072;SDS011;11202;50.916;4.698;2023-01-05T05:25:07;41.03;;;5.70;;
22072;SDS011;11202;50.916;4.698;2023-01-05T05:27:33;31.15;;;5.18;;
22072;SDS011;11202;50.916;4.698;2023-01-05T05:29:59;35.47;;;6.28;;
22072;SDS011;11202;50.916;4.698;2023-01-05T05:32:24;29.10;;;4.18;;
22072;SDS011;11202;50.916;4.698;2023-01-05T05:34:50;31.30;;;5.75;;
22072;SDS011;11202;50.916;4.698;2023-01-05T05:37:17;31.02;;;5.57;;
22072;SDS011;11202;50.916;4.698;2023-01-05T05:39:43;31.67;;;4.35;;
22072;SDS011;11202;50.916;4.698;2023-01-05T05:42:12;49.20;;;7.05;;
22072;SDS011;11202;50.916;4.698;2023-01-05T05:44:38;43.75;;;6.43;;
22072;SDS011;11202;50.916;4.698;2023-01-05T05:47:03;33.28;;;4.88;;
22072;SDS011;11202;50.916;4.698;2023-01-05T05:49:29;21.38;;;4.05;;
22072;SDS011;11202;50.916;4.698;2023-01-05T05:51:55;39.72;;;5.40;;
22072;SDS011;11202;50.916;4.698;2023-01-05T05:54:20;32.28;;;4.18;;
22072;SDS011;11202;50.916;4.698;2023-01-05T05:56:46;39.80;;;5.03;;
22072;SDS011;11202;50.916;4.698;2023-01-05T05:59:12;42.33;;;5.70;;
22072;SDS011;11202;50.916;4.698;2023-01-05T06:01:40;35.00;;;5.85;;
22072;SDS011;11202;50.916;4.698;2023-01-05T06:04:06;28.50;;;5.38;;
22072;SDS011;11202;50.916;4.698;2023-01-05T06:06:35;34.20;;;4.90;;
22072;SDS011;11202;50.916;4.698;2023-01-05T06:09:01;49.95;;;5.85;;
22072;SDS011;11202;50.916;4.698;2023-01-05T06:11:26;40.95;;;5.38;;
22072;SDS011;11202;50.916;4.698;2023-01-05T06:13:52;22.73;;;4.40;;
22072;SDS011;11202;50.916;4.698;2023-01-05T06:16:18;45.47;;;6.07;;
22072;SDS011;11202;50.916;4.698;2023-01-05T06:18:45;31.55;;;4.80;;
22072;SDS011;11202;50.916;4.698;2023-01-05T06:21:11;42.53;;;6.28;;
22072;SDS011;11202;50.916;4.698;2023-01-05T06:23:38;30.80;;;5.00;;
22072;SDS011;11202;50.916;4.698;2023-01-05T06:26:03;42.08;;;5.45;;
22072;SDS011;11202;50.916;4.698;2023-01-05T06:28:30;35.90;;;5.90;;
22072;SDS011;11202;50.916;4.698;2023-01-05T06:30:56;43.60;;;6.22;;
22072;SDS011;11202;50.916;4.698;2023-01-05T06:33:22;42.38;;;6.38;;
22072;SDS011;11202;50.916;4.698;2023-01-05T06:35:48;35.60;;;5.70;;
22072;SDS011;11202;50.916;4.698;2023-01-05T06:38:16;29.20;;;4.72;;
22072;SDS011;11202;50.916;4.698;2023-01-05T06:40:44;44.67;;;5.60;;
22072;SDS011;11202;50.916;4.698;2023-01-05T06:43:11;41.78;;;5.50;;
22072;SDS011;11202;50.916;4.698;2023-01-05T06:45:37;36.25;;;5.18;;
22072;SDS011;11202;50.916;4.698;2023-01-05T06:48:03;35.95;;;4.80;;
22072;SDS011;11202;50.916;4.698;2023-01-05T06:50:29;35.17;;;5.55;;
22072;SDS011;11202;50.916;4.698;2023-01-05T06:52:56;40.95;;;5.72;;
22072;SDS011;11202;50.916;4.698;2023-01-05T06:55:22;28.95;;;5.05;;
22072;SDS011;11202;50.916;4.698;2023-01-05T06:57:50;41.17;;;5.88;;
22072;SDS011;11202;50.916;4.698;2023-01-05T07:00:17;35.53;;;5.10;;
22072;SDS011;11202;50.916;4.698;2023-01-05T07:02:42;38.90;;;6.18;;
22072;SDS011;11202;50.916;4.698;2023-01-05T07:05:10;42.20;;;6.30;;
22072;SDS011;11202;50.916;4.698;2023-01-05T07:07:36;44.47;;;6.65;;
22072;SDS011;11202;50.916;4.698;2023-01-05T07:10:02;44.63;;;6.30;;
22072;SDS011;11202;50.916;4.698;2023-01-05T07:12:28;44.92;;;5.57;;
22072;SDS011;11202;50.916;4.698;2023-01-05T07:14:53;40.38;;;5.80;;
22072;SDS011;11202;50.916;4.698;2023-01-05T07:17:20;38.63;;;5.47;;
22072;SDS011;11202;50.916;4.698;2023-01-05T07:19:52;42.55;;;6.22;;
22072;SDS011;11202;50.916;4.698;2023-01-05T07:22:18;40.63;;;5.72;;
22072;SDS011;11202;50.916;4.698;2023-01-05T07:24:44;42.88;;;5.35;;
22072;SDS011;11202;50.916;4.698;2023-01-05T07:27:09;39.05;;;6.03;;
22072;SDS011;11202;50.916;4.698;2023-01-05T07:29:37;30.45;;;5.45;;
22072;SDS011;11202;50.916;4.698;2023-01-05T07:32:03;42.15;;;6.40;;
22072;SDS011;11202;50.916;4.698;2023-01-05T07:34:31;31.23;;;5.18;;
22072;SDS011;11202;50.916;4.698;2023-01-05T07:36:57;36.33;;;5.78;;
22072;SDS011;11202;50.916;4.698;2023-01-05T07:39:23;39.10;;;5.75;;
22072;SDS011;11202;50.916;4.698;2023-01-05T07:41:49;35.85;;;6.65;;
22072;SDS011;11202;50.916;4.698;2023-01-05T07:44:14;36.50;;;5.90;;
22072;SDS011;11202;50.916;4.698;2023-01-05T07:46:43;35.22;;;5.57;;
22072;SDS011;11202;50.916;4.698;2023-01-05T07:49:09;41.72;;;5.82;;
22072;SDS011;11202;50.916;4.698;2023-01-05T07:51:35;39.72;;;5.07;;
22072;SDS011;11202;50.916;4.698;2023-01-05T07:54:03;38.13;;;6.18;;
22072;SDS011;11202;50.916;4.698;2023-01-05T07:56:28;32.35;;;5.20;;
22072;SDS011;11202;50.916;4.698;2023-01-05T07:58:56;45.63;;;6.18;;
22072;SDS011;11202;50.916;4.698;2023-01-05T08:01:25;35.15;;;5.50;;
22072;SDS011;11202;50.916;4.698;2023-01-05T08:03:50;41.60;;;5.88;;
22072;SDS011;11202;50.916;4.698;2023-01-05T08:06:17;40.88;;;6.22;;
22072;SDS011;11202;50.916;4.698;2023-01-05T08:08:46;44.35;;;6.35;;
22072;SDS011;11202;50.916;4.698;2023-01-05T08:11:12;38.75;;;6.43;;
22072;SDS011;11202;50.916;4.698;2023-01-05T08:13:40;43.53;;;6.20;;
22072;SDS011;11202;50.916;4.698;2023-01-05T08:16:29;38.58;;;6.00;;
22072;SDS011;11202;50.916;4.698;2023-01-05T08:18:56;31.60;;;5.00;;
22072;SDS011;11202;50.916;4.698;2023-01-05T08:21:22;36.38;;;6.78;;
22072;SDS011;11202;50.916;4.698;2023-01-05T08:23:47;37.50;;;5.85;;
22072;SDS011;11202;50.916;4.698;2023-01-05T08:26:18;36.10;;;5.25;;
22072;SDS011;11202;50.916;4.698;2023-01-05T08:28:46;45.67;;;5.72;;
22072;SDS011;11202;50.916;4.698;2023-01-05T08:31:16;44.67;;;6.63;;
22072;SDS011;11202;50.916;4.698;2023-01-05T08:33:49;38.95;;;5.55;;
22072;SDS011;11202;50.916;4.698;2023-01-05T08:36:16;40.03;;;5.65;;
22072;SDS011;11202;50.916;4.698;2023-01-05T08:38:44;40.28;;;5.93;;
22072;SDS011;11202;50.916;4.698;2023-01-05T08:41:20;43.70;;;5.88;;
22072;SDS011;11202;50.916;4.698;2023-01-05T08:43:51;40.38;;;6.43;;
22072;SDS011;11202;50.916;4.698;2023-01-05T08:46:19;40.75;;;5.65;;
22072;SDS011;11202;50.916;4.698;2023-01-05T08:49:11;36.05;;;5.40;;
22072;SDS011;11202;50.916;4.698;2023-01-05T08:51:38;33.20;;;5.72;;
22072;SDS011;11202;50.916;4.698;2023-01-05T08:54:09;37.72;;;5.18;;
22072;SDS011;11202;50.916;4.698;2023-01-05T09:05:43;41.13;;;6.35;;
22072;SDS011;11202;50.916;4.698;2023-01-05T09:12:15;46.38;;;6.03;;
22072;SDS011;11202;50.916;4.698;2023-01-05T09:14:44;38.53;;;5.95;;
22072;SDS011;11202;50.916;4.698;2023-01-05T09:27:00;47.95;;;5.82;;
22072;SDS011;11202;50.916;4.698;2023-01-05T09:29:27;35.17;;;5.68;;
22072;SDS011;11202;50.916;4.698;2023-01-05T09:31:53;35.00;;;5.90;;
22072;SDS011;11202;50.916;4.698;2023-01-05T10:18:11;30.98;;;5.95;;
22072;SDS011;11202;50.916;4.698;2023-01-05T10:26:53;38.13;;;6.47;;
22072;SDS011;11202;50.916;4.698;2023-01-05T10:37:44;42.15;;;5.55;;
22072;SDS011;11202;50.916;4.698;2023-01-05T10:45:49;43.30;;;6.00;;
22072;SDS011;11202;50.916;4.698;2023-01-05T10:48:18;36.92;;;5.38;;
22072;SDS011;11202;50.916;4.698;2023-01-05T10:50:51;35.65;;;5.40;;
22072;SDS011;11202;50.916;4.698;2023-01-05T10:53:22;47.85;;;6.05;;
22072;SDS011;11202;50.916;4.698;2023-01-05T10:58:23;28.30;;;5.05;;
22072;SDS011;11202;50.916;4.698;2023-01-05T11:00:54;30.00;;;5.35;;
22072;SDS011;11202;50.916;4.698;2023-01-05T11:03:40;37.63;;;6.03;;
22072;SDS011;11202;50.916;4.698;2023-01-05T11:06:08;40.35;;;7.13;;
22072;SDS011;11202;50.916;4.698;2023-01-05T11:08:44;40.00;;;5.82;;
22072;SDS011;11202;50.916;4.698;2023-01-05T11:11:19;38.35;;;5.70;;
22072;SDS011;11202;50.916;4.698;2023-01-05T11:13:48;36.10;;;7.13;;
22072;SDS011;11202;50.916;4.698;2023-01-05T11:16:22;45.92;;;5.93;;
22072;SDS011;11202;50.916;4.698;2023-01-05T11:21:48;35.75;;;5.35;;
22072;SDS011;11202;50.916;4.698;2023-01-05T11:26:52;34.88;;;5.65;;
22072;SDS011;11202;50.916;4.698;2023-01-05T11:29:20;43.75;;;5.88;;
22072;SDS011;11202;50.916;4.698;2023-01-05T11:37:06;34.53;;;5.68;;
22072;SDS011;11202;50.916;4.698;2023-01-05T11:39:53;31.88;;;4.65;;
22072;SDS011;11202;50.916;4.698;2023-01-05T11:44:50;37.65;;;5.53;;
22072;SDS011;11202;50.916;4.698;2023-01-05T11:47:17;39.83;;;5.50;;
22072;SDS011;11202;50.916;4.698;2023-01-05T11:49:56;42.63;;;6.30;;
22072;SDS011;11202;50.916;4.698;2023-01-05T11:52:38;31.30;;;5.35;;
22072;SDS011;11202;50.916;4.698;2023-01-05T11:58:14;31.10;;;5.25;;
22072;SDS011;11202;50.916;4.698;2023-01-05T12:00:52;37.05;;;6.15;;
22072;SDS011;11202;50.916;4.698;2023-01-05T12:14:48;42.45;;;6.68;;
22072;SDS011;11202;50.916;4.698;2023-01-05T12:24:02;38.25;;;6.43;;
22072;SDS011;11202;50.916;4.698;2023-01-05T12:26:38;40.13;;;5.80;;
22072;SDS011;11202;50.916;4.698;2023-01-05T12:34:49;37.92;;;5.70;;
22072;SDS011;11202;50.916;4.698;2023-01-05T12:37:35;44.20;;;6.10;;
22072;SDS011;11202;50.916;4.698;2023-01-05T12:43:07;38.80;;;5.78;;
22072;SDS011;11202;50.916;4.698;2023-01-05T12:48:14;41.08;;;5.75;;
22072;SDS011;11202;50.916;4.698;2023-01-05T12:51:03;50.92;;;6.13;;
22072;SDS011;11202;50.916;4.698;2023-01-05T12:53:39;40.47;;;6.53;;
22072;SDS011;11202;50.916;4.698;2023-01-05T12:56:31;35.80;;;6.05;;
22072;SDS011;11202;50.916;4.698;2023-01-05T13:01:48;41.42;;;6.55;;
22072;SDS011;11202;50.916;4.698;2023-01-05T13:07:10;42.58;;;6.75;;
22072;SDS011;11202;50.916;4.698;2023-01-05T13:09:44;45.35;;;7.00;;
22072;SDS011;11202;50.916;4.698;2023-01-05T13:12:22;48.80;;;7.32;;
22072;SDS011;11202;50.916;4.698;2023-01-05T13:14:57;40.42;;;7.20;;
22072;SDS011;11202;50.916;4.698;2023-01-05T13:17:37;47.08;;;7.03;;
22072;SDS011;11202;50.916;4.698;2023-01-05T13:20:18;49.13;;;6.68;;
22072;SDS011;11202;50.916;4.698;2023-01-05T13:23:05;44.45;;;6.95;;
22072;SDS011;11202;50.916;4.698;2023-01-05T13:26:02;47.03;;;6.47;;
22072;SDS011;11202;50.916;4.698;2023-01-05T13:28:29;48.45;;;7.22;;
22072;SDS011;11202;50.916;4.698;2023-01-05T13:36:21;35.70;;;6.50;;
22072;SDS011;11202;50.916;4.698;2023-01-05T13:55:25;49.20;;;7.75;;
22072;SDS011;11202;50.916;4.698;2023-01-05T13:57:52;52.70;;;7.93;;
22072;SDS011;11202;50.916;4.698;2023-01-05T14:00:25;47.20;;;7.97;;
22072;SDS011;11202;50.916;4.698;2023-01-05T14:03:14;45.70;;;7.22;;
22072;SDS011;11202;50.916;4.698;2023-01-05T14:05:53;43.75;;;7.75;;
22072;SDS011;11202;50.916;4.698;2023-01-05T14:08:22;47.08;;;8.18;;
22072;SDS011;11202;50.916;4.698;2023-01-05T14:11:05;61.22;;;8.80;;
22072;SDS011;11202;50.916;4.698;2023-01-05T14:13:50;55.70;;;9.77;;
22072;SDS011;11202;50.916;4.698;2023-01-05T15:40:38;10.00;;;3.55;;
22072;SDS011;11202;50.916;4.698;2023-01-05T15:43:04;8.93;;;3.70;;
22072;SDS011;11202;50.916;4.698;2023-01-05T15:45:36;9.30;;;3.50;;
22072;SDS011;11202;50.916;4.698;2023-01-05T15:48:08;8.35;;;3.65;;
22072;SDS011;11202;50.916;4.698;2023-01-05T15:50:47;10.90;;;3.53;;
22072;SDS011;11202;50.916;4.698;2023-01-05T15:53:28;8.55;;;3.50;;
22072;SDS011;11202;50.916;4.698;2023-01-05T15:55:57;7.32;;;3.55;;
22072;SDS011;11202;50.916;4.698;2023-01-05T15:58:24;11.82;;;3.80;;
22072;SDS011;11202;50.916;4.698;2023-01-05T16:01:02;12.57;;;4.38;;
22072;SDS011;11202;50.916;4.698;2023-01-05T16:03:38;8.95;;;3.85;;
22072;SDS011;11202;50.916;4.698;2023-01-05T16:08:40;10.80;;;4.18;;
22072;SDS011;11202;50.916;4.698;2023-01-05T16:11:11;9.55;;;4.18;;
22072;SDS011;11202;50.916;4.698;2023-01-05T16:16:26;11.18;;;4.53;;
22072;SDS011;11202;50.916;4.698;2023-01-05T16:21:43;11.55;;;4.72;;
22072;SDS011;11202;50.916;4.698;2023-01-05T16:24:33;7.65;;;4.53;;
22072;SDS011;11202;50.916;4.698;2023-01-05T16:27:08;10.45;;;4.72;;
22072;SDS011;11202;50.916;4.698;2023-01-05T16:29:41;12.88;;;5.20;;
22072;SDS011;11202;50.916;4.698;2023-01-05T16:38:24;10.98;;;5.32;;
22072;SDS011;11202;50.916;4.698;2023-01-05T16:41:08;9.68;;;5.03;;
22072;SDS011;11202;50.916;4.698;2023-01-05T16:46:24;9.38;;;5.10;;
22072;SDS011;11202;50.916;4.698;2023-01-05T16:52:04;6.53;;;4.97;;
22072;SDS011;11202;50.916;4.698;2023-01-05T16:54:34;9.23;;;4.57;;
22072;SDS011;11202;50.916;4.698;2023-01-05T16:57:04;8.27;;;5.57;;
22072;SDS011;11202;50.916;4.698;2023-01-05T16:59:52;8.48;;;5.60;;
22072;SDS011;11202;50.916;4.698;2023-01-05T17:04:53;7.97;;;4.78;;
22072;SDS011;11202;50.916;4.698;2023-01-05T17:07:20;8.63;;;4.97;;
22072;SDS011;11202;50.916;4.698;2023-01-05T17:09:46;7.65;;;5.57;;
22072;SDS011;11202;50.916;4.698;2023-01-05T17:12:12;9.60;;;6.00;;
22072;SDS011;11202;50.916;4.698;2023-01-05T17:14:39;8.98;;;6.28;;
22072;SDS011;11202;50.916;4.698;2023-01-05T17:17:07;8.32;;;5.78;;
22072;SDS011;11202;50.916;4.698;2023-01-05T17:19:35;8.73;;;6.18;;
22072;SDS011;11202;50.916;4.698;2023-01-05T17:22:02;5.75;;;4.32;;
22072;SDS011;11202;50.916;4.698;2023-01-05T17:24:32;7.82;;;4.40;;
22072;SDS011;11202;50.916;4.698;2023-01-05T17:26:58;6.78;;;3.47;;
22072;SDS011;11202;50.916;4.698;2023-01-05T17:29:25;9.00;;;3.97;;
22072;SDS011;11202;50.916;4.698;2023-01-05T17:31:54;4.57;;;3.83;;
22072;SDS011;11202;50.916;4.698;2023-01-05T17:34:23;6.17;;;3.50;;
22072;SDS011;11202;50.916;4.698;2023-01-05T17:36:52;4.78;;;3.50;;
22072;SDS011;11202;50.916;4.698;2023-01-05T17:39:20;5.28;;;4.28;;
22072;SDS011;11202;50.916;4.698;2023-01-05T17:41:47;4.97;;;4.07;;
22072;SDS011;11202;50.916;4.698;2023-01-05T17:44:12;6.45;;;4.38;;
22072;SDS011;11202;50.916;4.698;2023-01-05T17:46:39;6.25;;;4.10;;
22072;SDS011;11202;50.916;4.698;2023-01-05T17:49:15;5.60;;;4.55;;
22072;SDS011;11202;50.916;4.698;2023-01-05T17:51:42;6.78;;;5.78;;
22072;SDS011;11202;50.916;4.698;2023-01-05T17:54:08;7.80;;;5.90;;
22072;SDS011;11202;50.916;4.698;2023-01-05T17:56:37;8.68;;;6.40;;
22072;SDS011;11202;50.916;4.698;2023-01-05T17:59:03;8.40;;;6.15;;
22072;SDS011;11202;50.916;4.698;2023-01-05T18:01:30;8.40;;;6.28;;
22072;SDS011;11202;50.916;4.698;2023-01-05T18:03:57;8.80;;;6.43;;
22072;SDS011;11202;50.916;4.698;2023-01-05T18:06:23;9.00;;;6.13;;
22072;SDS011;11202;50.916;4.698;2023-01-05T18:08:51;7.40;;;5.70;;
22072;SDS011;11202;50.916;4.698;2023-01-05T18:11:17;9.65;;;6.00;;
22072;SDS011;11202;50.916;4.698;2023-01-05T18:13:43;7.10;;;5.03;;
22072;SDS011;11202;50.916;4.698;2023-01-05T18:16:12;6.00;;;4.72;;
22072;SDS011;11202;50.916;4.698;2023-01-05T18:18:37;6.50;;;4.95;;
22072;SDS011;11202;50.916;4.698;2023-01-05T18:21:04;7.75;;;5.68;;
22072;SDS011;11202;50.916;4.698;2023-01-05T18:23:30;6.78;;;5.07;;
22072;SDS011;11202;50.916;4.698;2023-01-05T18:26:03;8.38;;;5.60;;
22072;SDS011;11202;50.916;4.698;2023-01-05T18:28:34;7.32;;;5.60;;
22072;SDS011;11202;50.916;4.698;2023-01-05T18:31:07;10.20;;;5.35;;
22072;SDS011;11202;50.916;4.698;2023-01-05T18:33:35;6.68;;;5.20;;
22072;SDS011;11202;50.916;4.698;2023-01-05T18:36:05;6.22;;;4.63;;
22072;SDS011;11202;50.916;4.698;2023-01-05T18:38:32;7.10;;;4.78;;
22072;SDS011;11202;50.916;4.698;2023-01-05T18:40:58;6.85;;;4.85;;
22072;SDS011;11202;50.916;4.698;2023-01-05T18:43:24;6.75;;;4.40;;
22072;SDS011;11202;50.916;4.698;2023-01-05T18:45:54;5.78;;;4.25;;
22072;SDS011;11202;50.916;4.698;2023-01-05T18:48:20;5.65;;;4.22;;
22072;SDS011;11202;50.916;4.698;2023-01-05T18:50:46;4.85;;;4.10;;
22072;SDS011;11202;50.916;4.698;2023-01-05T18:53:15;6.88;;;3.97;;
22072;SDS011;11202;50.916;4.698;2023-01-05T18:55:42;6.00;;;4.63;;
22072;SDS011;11202;50.916;4.698;2023-01-05T18:58:08;6.53;;;3.70;;
22072;SDS011;11202;50.916;4.698;2023-01-05T19:00:42;5.40;;;3.03;;
22072;SDS011;11202;50.916;4.698;2023-01-05T19:03:09;7.60;;;3.90;;
22072;SDS011;11202;50.916;4.698;2023-01-05T19:05:42;5.68;;;4.07;;
22072;SDS011;11202;50.916;4.698;2023-01-05T19:08:09;6.38;;;4.32;;
22072;SDS011;11202;50.916;4.698;2023-01-05T19:10:36;8.13;;;4.85;;
22072;SDS011;11202;50.916;4.698;2023-01-05T19:13:03;9.85;;;5.18;;
22072;SDS011;11202;50.916;4.698;2023-01-05T19:15:31;5.90;;;4.57;;
22072;SDS011;11202;50.916;4.698;2023-01-05T19:17:57;9.50;;;4.95;;
22072;SDS011;11202;50.916;4.698;2023-01-05T19:20:23;7.13;;;5.22;;
22072;SDS011;11202;50.916;4.698;2023-01-05T19:22:48;8.45;;;4.88;;
22072;SDS011;11202;50.916;4.698;2023-01-05T19:25:15;8.82;;;4.95;;
22072;SDS011;11202;50.916;4.698;2023-01-05T19:27:42;8.20;;;5.28;;
22072;SDS011;11202;50.916;4.698;2023-01-05T19:30:10;9.18;;;5.50;;
22072;SDS011;11202;50.916;4.698;2023-01-05T19:32:38;9.30;;;5.60;;
22072;SDS011;11202;50.916;4.698;2023-01-05T19:35:04;8.30;;;5.18;;
22072;SDS011;11202;50.916;4.698;2023-01-05T19:37:34;11.65;;;4.70;;
22072;SDS011;11202;50.916;4.698;2023-01-05T19:40:03;9.35;;;4.40;;
22072;SDS011;11202;50.916;4.698;2023-01-05T19:42:30;8.77;;;4.50;;
22072;SDS011;11202;50.916;4.698;2023-01-05T19:44:58;6.03;;;4.00;;
22072;SDS011;11202;50.916;4.698;2023-01-05T19:47:23;9.80;;;4.68;;
22072;SDS011;11202;50.916;4.698;2023-01-05T19:49:49;15.38;;;5.28;;
22072;SDS011;11202;50.916;4.698;2023-01-05T19:52:17;7.93;;;4.55;;
22072;SDS011;11202;50.916;4.698;2023-01-05T19:54:45;10.30;;;4.63;;
22072;SDS011;11202;50.916;4.698;2023-01-05T19:57:11;8.35;;;3.85;;
22072;SDS011;11202;50.916;4.698;2023-01-05T19:59:39;6.38;;;3.95;;
22072;SDS011;11202;50.916;4.698;2023-01-05T20:02:08;10.52;;;4.15;;
22072;SDS011;11202;50.916;4.698;2023-01-05T20:04:34;7.72;;;4.05;;
22072;SDS011;11202;50.916;4.698;2023-01-05T20:07:00;8.93;;;3.92;;
22072;SDS011;11202;50.916;4.698;2023-01-05T20:09:26;12.88;;;4.15;;
22072;SDS011;11202;50.916;4.698;2023-01-05T20:11:52;9.93;;;4.35;;
22072;SDS011;11202;50.916;4.698;2023-01-05T20:14:22;10.35;;;4.50;;
22072;SDS011;11202;50.916;4.698;2023-01-05T20:19:23;10.98;;;4.53;;
22072;SDS011;11202;50.916;4.698;2023-01-05T20:21:53;12.82;;;4.57;;
22072;SDS011;11202;50.916;4.698;2023-01-05T20:24:29;13.20;;;4.22;;
22072;SDS011;11202;50.916;4.698;2023-01-05T20:26:58;11.68;;;4.50;;
22072;SDS011;11202;50.916;4.698;2023-01-05T20:29:26;12.25;;;3.70;;
22072;SDS011;11202;50.916;4.698;2023-01-05T20:32:02;8.05;;;3.42;;
22072;SDS011;11202;50.916;4.698;2023-01-05T20:34:30;9.27;;;3.47;;
22072;SDS011;11202;50.916;4.698;2023-01-05T20:36:59;6.77;;;3.30;;
22072;SDS011;11202;50.916;4.698;2023-01-05T20:39:27;7.20;;;3.13;;
22072;SDS011;11202;50.916;4.698;2023-01-05T20:41:56;7.30;;;3.53;;
22072;SDS011;11202;50.916;4.698;2023-01-05T20:44:28;9.20;;;3.45;;
22072;SDS011;11202;50.916;4.698;2023-01-05T20:46:55;9.55;;;3.50;;
22072;SDS011;11202;50.916;4.698;2023-01-05T20:49:22;8.32;;;2.20;;
22072;SDS011;11202;50.916;4.698;2023-01-05T20:51:50;8.38;;;2.83;;
22072;SDS011;11202;50.916;4.698;2023-01-05T20:54:19;5.55;;;2.28;;
22072;SDS011;11202;50.916;4.698;2023-01-05T20:56:45;5.15;;;2.60;;
22072;SDS011;11202;50.916;4.698;2023-01-05T20:59:17;4.38;;;2.65;;
22072;SDS011;11202;50.916;4.698;2023-01-05T21:01:47;7.90;;;2.88;;
22072;SDS011;11202;50.916;4.698;2023-01-05T21:04:13;6.95;;;2.58;;
22072;SDS011;11202;50.916;4.698;2023-01-05T21:06:39;5.70;;;2.58;;
22072;SDS011;11202;50.916;4.698;2023-01-05T21:09:06;7.25;;;2.70;;
22072;SDS011;11202;50.916;4.698;2023-01-05T21:11:32;9.55;;;3.58;;
22072;SDS011;11202;50.916;4.698;2023-01-05T21:13:59;10.38;;;3.20;;
22072;SDS011;11202;50.916;4.698;2023-01-05T21:16:27;7.53;;;3.80;;
22072;SDS011;11202;50.916;4.698;2023-01-05T21:18:56;10.20;;;4.20;;
22072;SDS011;11202;50.916;4.698;2023-01-05T21:21:22;7.13;;;4.03;;
22072;SDS011;11202;50.916;4.698;2023-01-05T21:23:49;8.50;;;4.22;;
22072;SDS011;11202;50.916;4.698;2023-01-05T21:26:17;10.80;;;4.40;;
22072;SDS011;11202;50.916;4.698;2023-01-05T21:28:44;9.40;;;4.03;;
22072;SDS011;11202;50.916;4.698;2023-01-05T21:31:11;9.43;;;4.07;;
22072;SDS011;11202;50.916;4.698;2023-01-05T21:33:39;9.48;;;4.00;;
22072;SDS011;11202;50.916;4.698;2023-01-05T21:36:06;7.72;;;4.03;;
22072;SDS011;11202;50.916;4.698;2023-01-05T21:38:36;9.65;;;4.50;;
22072;SDS011;11202;50.916;4.698;2023-01-05T21:41:02;10.98;;;4.15;;
22072;SDS011;11202;50.916;4.698;2023-01-05T21:46:02;8.45;;;4.43;;
22072;SDS011;11202;50.916;4.698;2023-01-05T21:48:29;6.75;;;3.58;;
22072;SDS011;11202;50.916;4.698;2023-01-05T21:50:55;9.85;;;4.35;;
22072;SDS011;11202;50.916;4.698;2023-01-05T21:53:40;8.52;;;3.65;;
22072;SDS011;11202;50.916;4.698;2023-01-05T21:56:24;9.40;;;3.85;;
22072;SDS011;11202;50.916;4.698;2023-01-05T21:58:50;8.60;;;3.88;;
22072;SDS011;11202;50.916;4.698;2023-01-05T22:01:21;7.07;;;3.92;;
22072;SDS011;11202;50.916;4.698;2023-01-05T22:03:48;8.65;;;3.92;;